Time;durP1;ratioP1;P1;durP2;ratioP2;P2;SDS_P1;SDS_P2;PMS_P1;PMS_P2;Temp;Humidity;BMP_temperature;BMP_pressure;BME280_temperature;BME280_humidity;BME280_pressure;Samples;Min_cycle;Max_cycle;Signal;HPM_P1;HPM_P2
2022/11/09 00:00:39;;;;;;;9.00;1.88;;;11.80;99.90;;;;;;5117065;27;20058;-76
2022/11/09 00:03:08;;;;;;;7.03;1.70;;;11.80;99.90;;;;;;5122868;27;20031;-75
2022/11/09 00:05:33;;;;;;;7.70;1.70;;;11.80;99.90;;;;;;5124951;27;20043;-75
2022/11/09 00:07:59;;;;;;;8.25;2.00;;;11.80;99.90;;;;;;5140470;27;20127;-75
2022/11/09 00:10:25;;;;;;;8.32;1.58;;;11.80;99.90;;;;;;5124176;27;20078;-75
2022/11/09 00:12:51;;;;;;;4.47;1.30;;;11.80;99.90;;;;;;5105266;27;20067;-76
2022/11/09 00:15:16;;;;;;;7.78;1.40;;;11.90;99.90;;;;;;5117681;27;20077;-75
2022/11/09 00:17:42;;;;;;;8.50;1.58;;;11.80;99.90;;;;;;5121644;27;20039;-76
2022/11/09 00:20:08;;;;;;;9.70;1.90;;;11.80;99.90;;;;;;5129156;27;20050;-75
2022/11/09 00:22:37;;;;;;;9.48;1.73;;;11.80;99.90;;;;;;5122017;27;20043;-75
2022/11/09 00:25:03;;;;;;;5.80;1.52;;;11.80;99.90;;;;;;5139992;27;20050;-76
2022/11/09 00:27:28;;;;;;;8.02;1.33;;;11.80;99.90;;;;;;5120070;27;20038;-75
2022/11/09 00:29:54;;;;;;;6.45;1.85;;;11.80;99.90;;;;;;5117410;27;20726;-75
2022/11/09 00:32:20;;;;;;;9.40;1.70;;;11.80;99.90;;;;;;5106179;27;20450;-75
2022/11/09 00:34:45;;;;;;;7.72;1.77;;;11.80;99.90;;;;;;5134185;27;20062;-75
2022/11/09 00:37:11;;;;;;;6.03;1.58;;;11.80;99.90;;;;;;5130207;27;20058;-75
2022/11/09 00:39:37;;;;;;;6.82;1.33;;;11.80;99.90;;;;;;5121146;27;20047;-75
2022/11/09 00:42:02;;;;;;;4.30;1.50;;;11.80;99.90;;;;;;5132192;27;20031;-75
2022/11/09 00:44:28;;;;;;;4.45;1.50;;;11.90;99.90;;;;;;5109826;27;20054;-75
2022/11/09 00:46:54;;;;;;;5.68;1.90;;;11.80;99.90;;;;;;5136398;27;20050;-76
2022/11/09 00:49:20;;;;;;;9.35;2.03;;;11.80;99.90;;;;;;5120844;27;20129;-74
2022/11/09 00:51:45;;;;;;;6.68;2.10;;;12.20;99.90;;;;;;5111657;27;20046;-75
2022/11/09 00:54:11;;;;;;;11.07;1.95;;;11.80;99.90;;;;;;5138655;27;20051;-75
2022/11/09 00:56:37;;;;;;;9.38;2.42;;;11.80;99.90;;;;;;5108138;27;20050;-76
2022/11/09 00:59:02;;;;;;;7.82;2.63;;;11.80;99.90;;;;;;5089181;27;20499;-76
2022/11/09 01:01:28;;;;;;;8.57;2.50;;;11.80;99.90;;;;;;5112209;27;20050;-76
2022/11/09 01:03:54;;;;;;;10.05;2.50;;;11.80;99.90;;;;;;5110395;27;20124;-75
2022/11/09 01:06:22;;;;;;;6.50;2.38;;;11.80;99.90;;;;;;5132804;27;20043;-75
2022/11/09 01:08:49;;;;;;;7.47;2.50;;;11.80;99.90;;;;;;5094823;27;20043;-75
2022/11/09 01:11:16;;;;;;;10.10;2.78;;;11.90;99.90;;;;;;5107058;27;20433;-75
2022/11/09 01:13:42;;;;;;;7.53;2.70;;;11.90;99.90;;;;;;5099888;27;20090;-75
2022/11/09 01:16:11;;;;;;;13.20;2.63;;;11.90;99.90;;;;;;5103805;27;20506;-75
2022/11/09 01:18:38;;;;;;;8.70;2.50;;;11.80;99.90;;;;;;5094560;27;20045;-75
2022/11/09 01:21:05;;;;;;;9.68;3.20;;;11.90;99.90;;;;;;5103628;27;20035;-76
2022/11/09 01:23:32;;;;;;;10.30;2.72;;;11.90;99.90;;;;;;5124500;27;20132;-75
2022/11/09 01:26:00;;;;;;;10.13;2.80;;;11.90;99.90;;;;;;5119084;27;20069;-76
2022/11/09 01:28:26;;;;;;;10.55;2.60;;;11.90;99.90;;;;;;5106914;27;20046;-75
2022/11/09 01:30:52;;;;;;;9.93;3.13;;;11.90;99.90;;;;;;5101666;27;20403;-75
2022/11/09 01:33:17;;;;;;;8.93;2.45;;;12.00;99.90;;;;;;5130913;27;20133;-75
2022/11/09 01:35:43;;;;;;;8.82;2.47;;;12.00;99.90;;;;;;5119929;27;20464;-75
2022/11/09 01:38:10;;;;;;;13.38;3.00;;;12.00;99.90;;;;;;5110599;27;20039;-76
2022/11/09 01:40:38;;;;;;;9.70;2.72;;;12.00;99.90;;;;;;5119380;27;20047;-75
2022/11/09 01:43:19;;;;;;;9.18;2.88;;;12.00;99.90;;;;;;5098890;27;20058;-75
2022/11/09 01:45:50;;;;;;;11.45;2.28;;;12.10;99.90;;;;;;5114553;27;20038;-75
2022/11/09 01:48:39;;;;;;;11.50;1.55;;;12.10;99.90;;;;;;5106717;27;20104;-75
2022/11/09 01:51:16;;;;;;;7.55;1.50;;;12.10;99.90;;;;;;5107957;27;20077;-77
2022/11/09 01:53:46;;;;;;;7.82;1.77;;;12.10;99.90;;;;;;5111085;27;20081;-75
2022/11/09 01:56:13;;;;;;;8.52;2.28;;;12.10;99.90;;;;;;5105096;27;20051;-76
2022/11/09 01:58:49;;;;;;;9.80;1.95;;;12.10;99.90;;;;;;5095795;27;20043;-76
2022/11/09 02:01:16;;;;;;;10.07;2.53;;;12.10;99.90;;;;;;5138301;27;20089;-75
2022/11/09 02:03:54;;;;;;;8.48;2.55;;;12.40;99.90;;;;;;5139660;27;20042;-75
2022/11/09 02:06:23;;;;;;;9.52;2.60;;;12.10;99.90;;;;;;5100952;27;20122;-75
2022/11/09 02:08:53;;;;;;;8.27;3.00;;;12.10;99.90;;;;;;5121041;27;20035;-74
2022/11/09 02:11:20;;;;;;;14.05;2.80;;;12.10;99.90;;;;;;5119760;27;20042;-74
2022/11/09 02:13:58;;;;;;;11.98;2.47;;;12.10;99.90;;;;;;5122162;27;20505;-74
2022/11/09 02:16:26;;;;;;;10.77;2.13;;;12.10;99.90;;;;;;5140263;27;20043;-74
2022/11/09 02:18:54;;;;;;;11.73;2.80;;;12.20;99.90;;;;;;5123896;27;20038;-75
2022/11/09 02:21:23;;;;;;;8.30;2.35;;;12.10;99.90;;;;;;5125138;27;20043;-74
2022/11/09 02:23:50;;;;;;;13.73;2.70;;;12.10;99.90;;;;;;5125459;27;20130;-74
2022/11/09 02:26:28;;;;;;;12.25;2.42;;;12.10;99.90;;;;;;5121567;27;20055;-74
2022/11/09 02:28:55;;;;;;;11.00;2.80;;;12.10;99.90;;;;;;5143424;27;20047;-74
2022/11/09 02:31:25;;;;;;;10.30;3.00;;;12.00;99.90;;;;;;5142813;27;20038;-74
2022/11/09 02:33:59;;;;;;;9.38;2.80;;;12.10;99.90;;;;;;5098180;27;20038;-74
2022/11/09 02:36:25;;;;;;;13.80;2.60;;;12.00;99.90;;;;;;5138945;27;20106;-75
2022/11/09 02:38:53;;;;;;;10.32;2.50;;;12.10;99.90;;;;;;5108320;27;20499;-75
2022/11/09 02:41:21;;;;;;;14.35;2.50;;;12.00;99.90;;;;;;5116191;27;20478;-75
2022/11/09 02:43:49;;;;;;;12.70;2.83;;;12.00;99.90;;;;;;5124119;27;20066;-75
2022/11/09 02:46:33;;;;;;;10.65;2.97;;;12.00;99.90;;;;;;5126403;27;20038;-75
2022/11/09 02:49:00;;;;;;;15.00;2.58;;;12.00;99.90;;;;;;5143960;27;20100;-75
2022/11/09 02:51:26;;;;;;;13.93;2.53;;;12.00;99.90;;;;;;5098648;27;20118;-75
2022/11/09 02:53:51;;;;;;;12.73;3.30;;;12.20;99.90;;;;;;5124832;27;20122;-75
2022/11/09 02:56:17;;;;;;;11.05;2.67;;;12.00;99.90;;;;;;5121762;27;20132;-75
2022/11/09 02:58:43;;;;;;;15.57;3.05;;;12.00;99.90;;;;;;5122739;27;20099;-74
2022/11/09 03:01:09;;;;;;;10.90;2.60;;;12.10;99.90;;;;;;5117063;27;20035;-75
2022/11/09 03:03:35;;;;;;;11.82;2.25;;;11.90;99.90;;;;;;5106893;27;20415;-75
2022/11/09 03:06:01;;;;;;;9.15;2.75;;;11.90;99.90;;;;;;5124546;27;20506;-75
2022/11/09 03:08:27;;;;;;;9.55;2.60;;;11.90;99.90;;;;;;5124789;27;20044;-75
2022/11/09 03:10:52;;;;;;;11.60;2.33;;;11.90;99.90;;;;;;5106468;27;20125;-75
2022/11/09 03:13:18;;;;;;;10.68;3.20;;;11.90;99.90;;;;;;5145842;27;20067;-75
2022/11/09 03:15:44;;;;;;;10.48;2.70;;;11.90;99.90;;;;;;5139055;27;20038;-75
2022/11/09 03:18:10;;;;;;;16.88;2.90;;;11.90;99.90;;;;;;5122399;27;20483;-76
2022/11/09 03:20:36;;;;;;;12.70;2.60;;;11.90;99.90;;;;;;5121315;27;20031;-75
2022/11/09 03:23:01;;;;;;;9.07;2.50;;;11.90;99.90;;;;;;5123277;27;20510;-76
2022/11/09 03:25:27;;;;;;;13.38;2.47;;;11.80;99.90;;;;;;5143242;27;20051;-75
2022/11/09 03:27:58;;;;;;;12.43;2.70;;;11.80;99.90;;;;;;5108976;27;20654;-75
2022/11/09 03:30:24;;;;;;;9.68;2.40;;;11.80;99.90;;;;;;5140763;27;20122;-75
2022/11/09 03:32:49;;;;;;;10.20;2.05;;;11.80;99.90;;;;;;5108994;27;20130;-76
2022/11/09 03:35:15;;;;;;;12.13;2.63;;;11.80;99.90;;;;;;5143270;27;20656;-75
2022/11/09 03:37:40;;;;;;;10.57;2.10;;;11.80;99.90;;;;;;5124298;27;20023;-75
2022/11/09 03:40:07;;;;;;;12.63;2.20;;;11.80;99.90;;;;;;5122457;27;20441;-74
2022/11/09 03:42:32;;;;;;;11.70;1.65;;;11.80;99.90;;;;;;5107439;27;20038;-75
2022/11/09 03:44:58;;;;;;;10.73;2.22;;;11.80;99.90;;;;;;5139524;27;20514;-74
2022/11/09 03:47:24;;;;;;;12.77;1.95;;;11.80;99.90;;;;;;5132197;27;20486;-74
2022/11/09 03:49:49;;;;;;;15.50;2.75;;;12.00;99.90;;;;;;5120181;27;20123;-74
2022/11/09 03:52:15;;;;;;;7.78;2.50;;;11.70;99.90;;;;;;5122846;27;20065;-75
2022/11/09 03:54:40;;;;;;;11.45;1.98;;;11.70;99.90;;;;;;5102007;27;20073;-75
2022/11/09 03:57:07;;;;;;;10.40;2.03;;;11.90;99.90;;;;;;5123874;27;20087;-75
2022/11/09 03:59:32;;;;;;;12.07;1.92;;;11.70;99.90;;;;;;5139619;27;20043;-73
2022/11/09 04:01:58;;;;;;;12.82;2.63;;;11.70;99.90;;;;;;5122791;27;20039;-74
2022/11/09 04:04:24;;;;;;;9.85;1.75;;;11.70;99.90;;;;;;5140297;27;20031;-74
2022/11/09 04:06:49;;;;;;;11.88;2.20;;;11.50;99.90;;;;;;5123348;27;20087;-74
2022/11/09 04:09:15;;;;;;;11.75;2.30;;;11.70;99.90;;;;;;5114802;27;20514;-75
2022/11/09 04:11:41;;;;;;;13.52;2.10;;;11.60;99.90;;;;;;5118000;27;20061;-76
2022/11/09 04:14:06;;;;;;;9.60;2.10;;;11.60;99.90;;;;;;5123217;27;20115;-75
2022/11/09 04:16:32;;;;;;;12.75;2.08;;;11.50;99.90;;;;;;5111970;27;20081;-75
2022/11/09 04:18:58;;;;;;;16.95;2.95;;;11.70;99.90;;;;;;5128630;27;20091;-75
2022/11/09 04:21:23;;;;;;;12.20;1.85;;;11.60;99.90;;;;;;5120324;27;20444;-75
2022/11/09 04:23:49;;;;;;;11.88;2.00;;;11.60;99.90;;;;;;5102017;27;20043;-75
2022/11/09 04:26:15;;;;;;;15.57;2.72;;;11.60;99.90;;;;;;5099005;27;20065;-75
2022/11/09 04:28:40;;;;;;;12.95;2.35;;;11.60;99.90;;;;;;5111665;27;20039;-76
2022/11/09 04:31:06;;;;;;;12.15;1.92;;;11.50;99.90;;;;;;5130009;27;20063;-75
2022/11/09 04:33:32;;;;;;;11.93;2.25;;;11.60;99.90;;;;;;5129629;27;20049;-76
2022/11/09 04:36:02;;;;;;;11.73;2.08;;;11.60;99.90;;;;;;5138039;27;20416;-75
2022/11/09 04:38:28;;;;;;;12.13;2.20;;;11.60;99.90;;;;;;5110380;27;20110;-75
2022/11/09 04:40:53;;;;;;;16.20;2.45;;;11.60;99.90;;;;;;5137159;27;20050;-75
2022/11/09 04:43:19;;;;;;;13.43;2.35;;;11.60;99.90;;;;;;5129002;27;20070;-75
2022/11/09 04:45:46;;;;;;;13.75;2.15;;;11.60;99.90;;;;;;5116620;27;20043;-76
2022/11/09 04:48:12;;;;;;;8.90;1.92;;;11.60;99.90;;;;;;5136248;27;20043;-75
2022/11/09 04:50:38;;;;;;;13.85;2.45;;;11.60;99.90;;;;;;5103126;27;20688;-75
2022/11/09 04:53:08;;;;;;;10.50;2.10;;;11.60;99.90;;;;;;5134448;27;20078;-76
2022/11/09 04:55:35;;;;;;;7.35;2.08;;;11.60;99.90;;;;;;5119897;27;20043;-75
2022/11/09 04:58:01;;;;;;;14.95;2.45;;;11.60;99.90;;;;;;5098199;27;20862;-75
2022/11/09 05:00:26;;;;;;;12.07;2.10;;;11.60;99.90;;;;;;5123155;27;20039;-74
2022/11/09 05:02:52;;;;;;;12.73;2.30;;;11.60;99.90;;;;;;5094581;27;20048;-75
2022/11/09 05:05:18;;;;;;;15.43;2.80;;;11.70;99.90;;;;;;5131307;27;20519;-75
2022/11/09 05:07:43;;;;;;;17.30;3.03;;;11.70;99.90;;;;;;5135208;27;20046;-75
2022/11/09 05:10:09;;;;;;;13.00;2.70;;;11.70;99.90;;;;;;5116200;27;20038;-75
2022/11/09 05:12:38;;;;;;;13.15;2.80;;;11.70;99.90;;;;;;5101848;27;20043;-76
2022/11/09 05:15:07;;;;;;;10.65;2.00;;;11.70;99.90;;;;;;5095969;27;20043;-76
2022/11/09 05:17:32;;;;;;;12.60;2.38;;;11.80;99.90;;;;;;5114811;27;20081;-76
2022/11/09 05:19:58;;;;;;;14.18;2.50;;;11.80;99.90;;;;;;5128375;27;20074;-78
2022/11/09 05:25:11;;;;;;;13.93;2.30;;;11.80;99.90;;;;;;5125908;27;20507;-76
2022/11/09 05:27:37;;;;;;;10.45;2.58;;;11.80;99.90;;;;;;5113487;27;20047;-76
2022/11/09 05:30:09;;;;;;;9.32;1.90;;;11.80;99.90;;;;;;5102907;27;20162;-77
2022/11/09 05:32:38;;;;;;;18.30;2.83;;;11.80;99.90;;;;;;5111180;27;20506;-76
2022/11/09 05:35:05;;;;;;;12.88;2.38;;;11.80;99.90;;;;;;5120620;27;20055;-75
2022/11/09 05:37:30;;;;;;;11.90;2.35;;;11.70;99.90;;;;;;5114829;27;20074;-76
2022/11/09 05:39:57;;;;;;;11.73;2.17;;;11.70;99.90;;;;;;5087457;27;20078;-75
2022/11/09 05:42:24;;;;;;;11.38;2.53;;;11.70;99.90;;;;;;5122099;27;20043;-76
2022/11/09 05:44:49;;;;;;;12.65;2.20;;;11.70;99.90;;;;;;5127823;27;20046;-76
2022/11/09 05:47:15;;;;;;;13.32;2.30;;;11.70;99.90;;;;;;5099181;27;20043;-76
2022/11/09 05:49:41;;;;;;;13.45;2.40;;;11.70;99.90;;;;;;5088127;27;20088;-75
2022/11/09 05:52:06;;;;;;;18.42;2.50;;;11.70;99.90;;;;;;5118148;27;20045;-75
2022/11/09 05:54:32;;;;;;;12.35;2.70;;;11.70;99.90;;;;;;5130604;27;20058;-75
2022/11/09 05:57:00;;;;;;;12.38;2.20;;;11.70;99.90;;;;;;5085746;28;20035;-76
2022/11/09 05:59:26;;;;;;;14.65;2.20;;;11.70;99.90;;;;;;5125327;27;20492;-76
2022/11/09 06:01:51;;;;;;;8.65;2.35;;;11.70;99.90;;;;;;5104102;27;20050;-75
2022/11/09 06:04:17;;;;;;;13.85;2.78;;;11.70;99.90;;;;;;5106801;27;20121;-77
2022/11/09 06:06:43;;;;;;;12.80;2.35;;;11.70;99.90;;;;;;5126613;27;20058;-77
2022/11/09 06:09:09;;;;;;;17.80;2.55;;;11.70;99.90;;;;;;5103264;28;20043;-77
2022/11/09 06:11:38;;;;;;;11.90;2.58;;;11.60;99.90;;;;;;5080595;28;20043;-77
2022/11/09 06:14:03;;;;;;;12.88;2.55;;;11.60;99.90;;;;;;5102365;28;20047;-77
2022/11/09 06:16:29;;;;;;;10.70;2.10;;;11.60;99.90;;;;;;5086227;28;20057;-74
2022/11/09 06:18:55;;;;;;;15.48;2.35;;;11.60;99.90;;;;;;5119890;27;20598;-75
2022/11/09 06:21:20;;;;;;;14.45;2.60;;;11.60;99.90;;;;;;5074037;27;20141;-75
2022/11/09 06:23:46;;;;;;;13.95;2.42;;;11.60;99.90;;;;;;5090642;27;20712;-74
2022/11/09 06:26:12;;;;;;;14.20;2.25;;;11.60;99.90;;;;;;5125714;27;20527;-73
2022/11/09 06:28:39;;;;;;;12.95;2.30;;;11.50;99.90;;;;;;5113450;28;20133;-75
2022/11/09 06:31:11;;;;;;;12.73;2.40;;;11.50;99.90;;;;;;5105227;28;20039;-74
2022/11/09 06:33:37;;;;;;;8.98;2.15;;;11.50;99.90;;;;;;5073477;28;20047;-74
2022/11/09 06:36:03;;;;;;;11.90;2.20;;;11.50;99.90;;;;;;5119064;27;20408;-75
2022/11/09 06:38:29;;;;;;;11.38;2.33;;;11.50;99.90;;;;;;5087784;28;20047;-75
2022/11/09 06:40:57;;;;;;;11.98;2.20;;;11.50;99.90;;;;;;5113024;27;20100;-71
2022/11/09 06:43:23;;;;;;;11.38;2.20;;;11.50;99.90;;;;;;5117962;27;20419;-73
2022/11/09 06:45:49;;;;;;;13.43;2.13;;;11.50;99.90;;;;;;5106019;28;20122;-74
2022/11/09 06:48:15;;;;;;;7.80;2.13;;;11.50;99.90;;;;;;5105598;28;20455;-73
2022/11/09 06:50:41;;;;;;;12.43;2.40;;;11.50;99.90;;;;;;5131492;27;20032;-72
2022/11/09 06:53:09;;;;;;;10.60;2.10;;;11.50;99.90;;;;;;5126537;27;20036;-74
2022/11/09 06:55:36;;;;;;;14.70;3.03;;;11.40;99.90;;;;;;5093827;28;20038;-74
2022/11/09 06:58:08;;;;;;;10.05;1.98;;;11.40;99.90;;;;;;5134068;27;20044;-74
2022/11/09 07:00:34;;;;;;;12.23;2.13;;;11.40;99.90;;;;;;5107442;28;20032;-73
2022/11/09 07:03:00;;;;;;;11.02;2.40;;;11.40;99.90;;;;;;5106089;28;20073;-74
2022/11/09 07:05:26;;;;;;;11.75;2.25;;;11.60;99.90;;;;;;5105968;28;20036;-73
2022/11/09 07:07:52;;;;;;;12.55;2.53;;;11.50;99.90;;;;;;5107970;28;20031;-73
2022/11/09 07:10:18;;;;;;;9.50;1.70;;;11.40;99.90;;;;;;5106642;28;20078;-74
2022/11/09 07:12:44;;;;;;;13.05;2.05;;;11.40;99.90;;;;;;5105683;28;20130;-74
2022/11/09 07:15:11;;;;;;;12.75;2.53;;;11.40;99.90;;;;;;5105399;28;20126;-74
2022/11/09 07:17:38;;;;;;;13.63;2.75;;;11.40;99.90;;;;;;5089552;28;20124;-74
2022/11/09 07:20:06;;;;;;;8.52;1.88;;;11.40;99.90;;;;;;5124845;27;20205;-75
2022/11/09 07:22:33;;;;;;;10.23;2.10;;;11.40;99.90;;;;;;5108846;28;20092;-74
2022/11/09 07:24:59;;;;;;;11.30;2.22;;;11.40;99.90;;;;;;5108217;27;20050;-75
2022/11/09 07:27:25;;;;;;;13.32;2.63;;;11.30;99.90;;;;;;5123412;27;20091;-74
2022/11/09 07:29:51;;;;;;;9.18;1.90;;;11.40;99.90;;;;;;5110459;27;20484;-75
2022/11/09 07:32:17;;;;;;;9.68;1.98;;;11.30;99.90;;;;;;5125345;27;20039;-73
2022/11/09 07:34:42;;;;;;;14.23;2.05;;;11.40;99.90;;;;;;5110872;27;20042;-74
2022/11/09 07:37:08;;;;;;;9.68;1.95;;;11.40;99.90;;;;;;5130121;27;20049;-74
2022/11/09 07:39:34;;;;;;;10.57;1.65;;;11.40;99.90;;;;;;5095726;27;20088;-74
2022/11/09 07:42:00;;;;;;;13.52;2.17;;;11.50;99.90;;;;;;5108228;27;20072;-74
2022/11/09 07:44:25;;;;;;;11.10;2.20;;;11.40;99.90;;;;;;5107889;27;20092;-74
2022/11/09 07:46:51;;;;;;;13.15;1.90;;;11.50;99.90;;;;;;5090956;27;20415;-75
2022/11/09 07:49:17;;;;;;;9.95;1.80;;;11.50;99.90;;;;;;5123774;27;20541;-75
2022/11/09 07:51:43;;;;;;;10.40;1.80;;;11.50;99.90;;;;;;5115155;27;20042;-76
2022/11/09 07:54:09;;;;;;;13.57;2.33;;;11.50;99.90;;;;;;5126294;27;20051;-76
2022/11/09 07:56:36;;;;;;;14.63;2.13;;;11.50;99.90;;;;;;5087909;27;20050;-76
2022/11/09 07:59:02;;;;;;;14.38;2.30;;;11.70;99.90;;;;;;5107463;27;20082;-76
2022/11/09 08:01:28;;;;;;;9.95;1.80;;;11.50;99.90;;;;;;5090157;27;20543;-76
2022/11/09 08:03:54;;;;;;;11.45;2.03;;;11.50;99.90;;;;;;5090598;27;20129;-77
2022/11/09 08:06:21;;;;;;;11.93;1.92;;;11.60;99.90;;;;;;5120860;27;20134;-77
2022/11/09 08:08:48;;;;;;;13.55;2.00;;;11.60;99.90;;;;;;5099742;27;20702;-76
2022/11/09 08:11:14;;;;;;;17.08;2.92;;;11.60;99.90;;;;;;5103734;27;20046;-74
2022/11/09 08:13:40;;;;;;;10.40;2.03;;;11.60;99.90;;;;;;5119072;27;20104;-74
2022/11/09 08:16:06;;;;;;;13.02;2.50;;;11.70;99.90;;;;;;5125847;27;20062;-73
2022/11/09 08:18:32;;;;;;;12.48;2.35;;;11.70;99.90;;;;;;5106107;27;20484;-75
2022/11/09 08:21:02;;;;;;;17.65;2.58;;;11.70;99.90;;;;;;5128427;27;20035;-75
2022/11/09 08:23:27;;;;;;;11.88;2.20;;;11.70;99.90;;;;;;5091902;27;20410;-76
2022/11/09 08:25:53;;;;;;;11.57;1.92;;;11.70;99.90;;;;;;5118376;27;20134;-76
2022/11/09 08:28:19;;;;;;;14.35;2.53;;;11.80;99.90;;;;;;5121227;27;20044;-75
2022/11/09 08:30:53;;;;;;;12.98;2.13;;;11.80;99.90;;;;;;5109438;27;20126;-75
2022/11/09 08:33:18;;;;;;;10.98;2.20;;;11.80;99.90;;;;;;5103944;27;20057;-75
2022/11/09 08:35:44;;;;;;;12.82;2.25;;;11.80;99.90;;;;;;5138477;27;20474;-76
2022/11/09 08:38:10;;;;;;;15.90;2.92;;;11.90;99.90;;;;;;5110289;27;20039;-76
2022/11/09 08:40:36;;;;;;;14.45;2.30;;;12.00;99.90;;;;;;5111205;27;20043;-76
2022/11/09 08:43:03;;;;;;;16.40;2.63;;;11.90;99.90;;;;;;5108100;27;20044;-76
2022/11/09 08:45:32;;;;;;;14.30;2.17;;;12.00;99.90;;;;;;5087758;27;20422;-76
2022/11/09 08:47:58;;;;;;;13.10;2.25;;;12.00;99.90;;;;;;5099120;27;20041;-75
2022/11/09 08:50:26;;;;;;;14.15;2.35;;;12.00;99.90;;;;;;5129920;27;20050;-75
2022/11/09 08:52:51;;;;;;;12.30;2.38;;;12.00;99.90;;;;;;5136604;27;20105;-75
2022/11/09 08:55:17;;;;;;;15.52;2.10;;;12.10;99.90;;;;;;5135276;27;20445;-76
2022/11/09 08:57:43;;;;;;;11.50;2.30;;;12.10;99.90;;;;;;5125532;27;20449;-75
2022/11/09 09:00:09;;;;;;;14.07;2.20;;;12.10;99.90;;;;;;5100989;27;20035;-76
2022/11/09 09:02:35;;;;;;;10.88;2.10;;;12.20;99.90;;;;;;5104530;27;20051;-75
2022/11/09 09:05:01;;;;;;;14.35;2.67;;;12.20;99.90;;;;;;5133413;27;20043;-76
2022/11/09 09:07:27;;;;;;;8.73;2.47;;;12.20;99.90;;;;;;5130500;27;20045;-76
2022/11/09 09:09:53;;;;;;;10.57;2.00;;;12.20;99.90;;;;;;5120154;27;20039;-76
2022/11/09 09:12:18;;;;;;;10.85;2.13;;;12.30;99.90;;;;;;5107297;27;20099;-76
2022/11/09 09:14:44;;;;;;;13.70;2.58;;;12.30;99.90;;;;;;5106590;27;20038;-76
2022/11/09 09:17:10;;;;;;;12.45;2.20;;;12.30;99.90;;;;;;5122027;27;20543;-76
2022/11/09 09:19:36;;;;;;;16.05;2.38;;;12.40;99.90;;;;;;5088522;27;20070;-76
2022/11/09 09:22:02;;;;;;;13.60;2.92;;;12.40;99.90;;;;;;5121545;27;20097;-76
2022/11/09 09:24:27;;;;;;;16.92;2.72;;;12.40;99.90;;;;;;5102580;27;20039;-76
2022/11/09 09:26:53;;;;;;;14.95;2.33;;;12.50;99.90;;;;;;5131812;27;20039;-75
2022/11/09 09:29:19;;;;;;;19.30;2.60;;;12.50;99.90;;;;;;5099477;28;20069;-76
2022/11/09 09:31:44;;;;;;;13.80;2.47;;;12.50;99.90;;;;;;5128804;27;20039;-76
2022/11/09 09:34:11;;;;;;;13.50;2.40;;;12.60;99.90;;;;;;5086931;28;20495;-75
2022/11/09 09:36:37;;;;;;;10.27;2.05;;;12.60;99.90;;;;;;5104441;28;20035;-76
2022/11/09 09:39:03;;;;;;;14.10;2.05;;;12.60;99.90;;;;;;5108267;27;20044;-75
2022/11/09 09:41:53;;;;;;;13.45;2.35;;;12.60;99.90;;;;;;5100048;28;20520;-76
2022/11/09 09:44:40;;;;;;;14.88;2.85;;;12.70;99.90;;;;;;5082386;28;20184;-75
2022/11/09 09:47:21;;;;;;;16.50;2.30;;;12.70;99.90;;;;;;5081731;28;20043;-76
2022/11/09 09:49:54;;;;;;;19.73;3.33;;;12.70;99.90;;;;;;5099634;28;20511;-76
2022/11/09 09:52:26;;;;;;;14.40;2.40;;;12.80;99.90;;;;;;5098425;28;20646;-75
2022/11/09 09:55:24;;;;;;;11.35;2.42;;;12.80;99.90;;;;;;5083574;28;20500;-76
2022/11/09 09:57:55;;;;;;;13.10;2.72;;;12.90;99.90;;;;;;5112857;27;20477;-75
2022/11/09 10:00:26;;;;;;;14.10;2.58;;;13.20;99.90;;;;;;5083435;28;20044;-73
2022/11/09 10:02:53;;;;;;;11.50;2.10;;;13.00;99.90;;;;;;5104070;28;20046;-76
2022/11/09 10:05:27;;;;;;;12.57;2.13;;;13.00;99.90;;;;;;5104975;28;20040;-77
2022/11/09 10:08:08;;;;;;;15.18;2.78;;;13.00;99.90;;;;;;5103827;28;20100;-76
2022/11/09 10:11:01;;;;;;;16.27;2.83;;;13.00;99.90;;;;;;5098207;28;20411;-75
2022/11/09 10:13:36;;;;;;;17.30;2.10;;;13.20;99.90;;;;;;5130658;27;20526;-75
2022/11/09 10:16:31;;;;;;;8.60;2.15;;;13.20;99.90;;;;;;5098635;28;20040;-76
2022/11/09 10:19:16;;;;;;;13.15;2.53;;;13.10;99.90;;;;;;5103425;28;20403;-73
2022/11/09 10:21:56;;;;;;;18.10;2.85;;;13.10;99.90;;;;;;5098658;28;20441;-76
2022/11/09 10:24:22;;;;;;;11.82;2.40;;;13.30;99.90;;;;;;5097956;28;20438;-75
2022/11/09 10:26:54;;;;;;;15.25;3.15;;;13.20;99.90;;;;;;5084889;28;20051;-74
2022/11/09 10:29:27;;;;;;;14.38;2.70;;;13.20;99.90;;;;;;5104819;28;20075;-74
2022/11/09 10:31:57;;;;;;;14.05;2.85;;;13.20;99.90;;;;;;5104568;28;20138;-75
2022/11/09 10:34:36;;;;;;;13.63;2.90;;;13.40;99.90;;;;;;5084979;28;20051;-75
2022/11/09 10:37:15;;;;;;;18.38;4.25;;;13.20;99.90;;;;;;5105784;27;20043;-76
2022/11/09 10:39:51;;;;;;;19.88;3.47;;;13.40;99.90;;;;;;5089390;28;20756;-76
2022/11/09 10:42:16;;;;;;;14.35;3.38;;;13.20;99.90;;;;;;5104291;27;20035;-75
2022/11/09 10:44:42;;;;;;;15.02;3.05;;;13.20;99.90;;;;;;5111909;27;20641;-75
2022/11/09 10:47:11;;;;;;;10.45;2.78;;;13.10;99.90;;;;;;5085663;28;20507;-74
2022/11/09 10:49:38;;;;;;;15.18;3.38;;;13.10;99.90;;;;;;5107117;27;20137;-75
2022/11/09 10:52:25;;;;;;;19.80;3.47;;;13.10;99.90;;;;;;5106748;27;20043;-75
2022/11/09 10:54:51;;;;;;;14.63;2.90;;;13.20;99.90;;;;;;5086059;28;20127;-75
2022/11/09 10:57:20;;;;;;;11.85;2.58;;;13.20;99.90;;;;;;5086550;28;20039;-75
2022/11/09 10:59:55;;;;;;;12.32;3.35;;;13.20;99.90;;;;;;5086930;28;20054;-75
2022/11/09 11:02:23;;;;;;;16.17;3.72;;;13.10;99.90;;;;;;5104792;28;20043;-77
2022/11/09 11:04:49;;;;;;;10.95;2.63;;;13.10;99.90;;;;;;5130148;27;20054;-76
2022/11/09 11:07:20;;;;;;;15.13;2.80;;;13.10;99.90;;;;;;5099535;27;20036;-76
2022/11/09 11:09:45;;;;;;;18.50;2.80;;;13.10;99.90;;;;;;5100794;27;20155;-77
2022/11/09 11:12:15;;;;;;;12.35;3.00;;;13.10;99.90;;;;;;5101671;28;20568;-77
2022/11/09 11:14:43;;;;;;;10.90;2.70;;;13.10;99.90;;;;;;5085199;28;20177;-75
2022/11/09 11:17:35;;;;;;;14.13;3.13;;;13.10;99.90;;;;;;5129865;27;20542;-75
2022/11/09 11:20:36;;;;;;;17.25;3.63;;;13.10;99.90;;;;;;5083124;28;20043;-75
2022/11/09 11:23:14;;;;;;;14.05;3.00;;;13.10;99.90;;;;;;5100928;28;20638;-75
2022/11/09 11:25:58;;;;;;;10.88;2.50;;;13.10;99.90;;;;;;5125317;27;20052;-74
2022/11/09 11:28:43;;;;;;;10.93;2.53;;;13.10;99.90;;;;;;5105905;28;20067;-74
2022/11/09 11:31:16;;;;;;;9.60;2.65;;;13.20;99.90;;;;;;5103139;28;20043;-75
2022/11/09 11:33:42;;;;;;;15.75;2.78;;;13.10;99.90;;;;;;5084936;27;20400;-75
2022/11/09 11:36:17;;;;;;;13.10;2.63;;;13.10;99.90;;;;;;5098097;27;20043;-75
2022/11/09 11:39:04;;;;;;;12.55;4.00;;;13.20;99.90;;;;;;5095625;27;20118;-75
2022/11/09 11:41:55;;;;;;;10.73;2.40;;;13.10;99.90;;;;;;5102779;27;20139;-75
2022/11/09 11:45:05;;;;;;;10.93;2.40;;;13.20;99.90;;;;;;5094844;27;20452;-75
2022/11/09 11:47:50;;;;;;;10.48;2.42;;;13.20;99.90;;;;;;5044686;28;20329;-74
2022/11/09 11:50:24;;;;;;;17.38;2.92;;;13.20;99.90;;;;;;5043448;28;20044;-75
2022/11/09 11:53:22;;;;;;;18.70;3.95;;;13.20;99.90;;;;;;5083186;27;20058;-74
2022/11/09 11:56:03;;;;;;;12.23;2.97;;;13.20;99.90;;;;;;5099201;27;20055;-75
2022/11/09 11:58:35;;;;;;;18.43;3.10;;;13.20;99.90;;;;;;5114849;27;20074;-75
2022/11/09 12:01:16;;;;;;;15.52;3.00;;;13.20;99.90;;;;;;5100637;27;20528;-74
2022/11/09 12:03:49;;;;;;;15.57;2.72;;;13.30;99.90;;;;;;5098361;27;20044;-75
2022/11/09 12:06:18;;;;;;;13.65;2.55;;;13.30;99.90;;;;;;5078967;28;20615;-74
2022/11/09 12:09:02;;;;;;;15.13;2.70;;;13.20;99.90;;;;;;5102547;27;20040;-75
2022/11/09 12:11:34;;;;;;;15.80;3.17;;;13.20;99.90;;;;;;5096519;27;20062;-74
2022/11/09 12:14:27;;;;;;;17.10;3.47;;;13.20;99.90;;;;;;5089974;27;20043;-74
2022/11/09 12:16:58;;;;;;;14.70;3.13;;;13.20;99.90;;;;;;5130862;27;20059;-74
2022/11/09 12:19:39;;;;;;;14.18;3.05;;;13.40;99.90;;;;;;5096027;27;20573;-74
2022/11/09 12:22:08;;;;;;;18.60;4.07;;;13.20;99.90;;;;;;5131052;27;20058;-75
2022/11/09 12:25:00;;;;;;;14.82;3.55;;;13.20;99.90;;;;;;5100937;27;20051;-75
2022/11/09 12:27:40;;;;;;;13.82;3.22;;;13.20;99.90;;;;;;5098831;27;20404;-75
2022/11/09 12:30:15;;;;;;;13.40;3.10;;;13.20;99.90;;;;;;5099284;27;20052;-75
2022/11/09 12:33:02;;;;;;;17.77;3.13;;;13.20;99.90;;;;;;5096659;27;20447;-75
2022/11/09 12:35:32;;;;;;;11.38;3.00;;;13.20;99.90;;;;;;5088023;27;20122;-76
2022/11/09 12:38:11;;;;;;;11.73;3.60;;;13.20;99.90;;;;;;5103515;27;20051;-75
2022/11/09 12:40:44;;;;;;;13.52;3.10;;;13.30;99.90;;;;;;5096957;27;20073;-75
2022/11/09 12:43:26;;;;;;;13.55;3.05;;;13.20;99.90;;;;;;5104162;27;20056;-75
2022/11/09 12:45:52;;;;;;;14.00;3.03;;;13.40;99.90;;;;;;5105332;27;20039;-76
2022/11/09 12:48:28;;;;;;;13.68;2.65;;;13.30;99.90;;;;;;5101927;27;20055;-74
2022/11/09 12:50:55;;;;;;;11.10;2.65;;;13.30;99.90;;;;;;5103920;27;20086;-75